Vesper, Wisconsin
Current Conditions -  °F | °C
As of 5:54 PM on Tuesday 25 Nov 2014 (Local Time) from KISW Reporting Station
Broken Clouds Broken Clouds  
Wind Chill: 13°   Ceiling: 5500
Heat Index: 13°   Visibility: NA
Dew Point:   Wind: 3mph
Humidity: 84%   Direction: 170°S
Pressure: 30.09"   Gusts: NA
Location:  44.48°N, 89.96°W
Report Text: KISW 252354Z AUTO 17003KT BKN055 M11/M13 A3009 RMK AO2 SLP211 I1000 I6000 T11061128 11056 21106 53009 $
Loading
Personal Weather Stations






























Interactive Weather Map New forecast layout! Learn more

10-Day Weather Forecast

Advertisements
Track Severe Weather on mobile